Share

Gillette, WY

7:36 PM MDT on April 23, 2014 (GMT -0600)
RAWS ECHETA WY US (MECEW4) Elev 4396 ft | 44.47 °N, 105.84 °W | Change Station

Current weather conditions updated 45 minutes ago

Mostly Cloudy
Mostly Cloudy
50 °F
Feels Like 44 °F
N
17
Wind Variable Wind from NW
Gusts 31.0 mph
Sunrise 6:05 AM
Sunset 7:57 PM
Moon Waning Crescent

Tomorrow is forecast to be Warmer than today.

Pressure 29.76 in
Visibility 10.0 miles
Clouds Few 8000 ft
Mostly Cloudy 10000 ft
Windchill 44 °F
Dew Point 19 °F
Humidity 29%
Rainfall 0.00 in
Snow Depth Not available.
UV 0 out of 16
Pollen 9.30 out of 12
Air Quality Not available.
Flu Activity Sporadic
METAR KBYG 240053Z AUTO 28005KT 10SM FEW080 BKN100 07/M06 A2979 RMK AO2 PK WND 36027/0012 SLP077 T00721061 $

More Conditions Fewer Conditions

Pressure 29.76 in
Visibility 10.0 miles
Clouds Few 8000 ft
Mostly Cloudy 10000 ft
Windchill 44 °F
Dew Point 19 °F
Humidity 29%
Rainfall 0.00 in
Snow Depth Not available.
UV 0 out of 16
Pollen 9.30 out of 12
Air Quality Not available.
Flu Activity Sporadic
METAR KBYG 240053Z AUTO 28005KT 10SM FEW080 BKN100 07/M06 A2979 RMK AO2 PK WND 36027/0012 SLP077 T00721061 $

More Conditions Fewer Conditions

10-Day Weather Forecast

Almanac

Astronomy

Apr. 23, 2014 Rise Set
Actual Time 6:05 AM MDT 7:57 PM MDT
Civil Twilight 5:34 AM MDT 8:28 PM MDT
Nautical Twilight 4:55 AM MDT 9:07 PM MDT
Astronomical Twilight 4:14 AM MDT 9:48 PM MDT
Moon 2:53 AM MDT (4/23) 1:55 PM MDT (4/23)
Length of Visible Light 14h 54m
Length of Day
13h 52m
Tomorrow will be 2m 50s longer.
Waning Crescent, 31% of the Moon is Illuminated
Today
Waning Crescent
Apr 29
New
May 6
First Quarter
May 14
Full
May 21
Last Quarter

Today's Extremes

State Highs State Lows

Community

  • Nestled In
    Nestled In
  • Stunning Sunrise
    Stunning Sunrise
  • spring flowers
    spring flowers
  • Earth Day Spectrum Ove' Blue
    Earth Day Spectrum Ove' Blue
  • BARN B&W
    BARN B&W

WunderPhotos

Upload Photos

1,704,487 photos uploaded!

Nearby

Snow Depth

Station Depth Elevation
Casper Mountain 45 in 7850 ft
Reno Hill 49 in 8500 ft
Laprele Creek 17 in 8375 ft
Windy Peak 18 in 7900 ft
Sand Lake 91 in 10050 ft

Coastal Water Temperatures

Place Temperature
No Stations Reporting

Earthquake Activity

City Distance Mag. Time & Date
No recent earthquake activity has been reported nearby.
Minimum magnitude displayed is 2.5.

Nearby Weather Stations

Station Location Temp. Windchill Dew Point Humidity Wind Precip. Elev Updated Type
RAWS ECHETA WY, Gillette, WY 50 °F 44 °F 19 °F 29% NW  at  17 mph 0.00 in / hr 4396 ft 6:51 PM MDT MADIS
(North Gillette), Gillette, WY 47.6 °F 46 °F 24 °F 40% WNW  at  4.0 mph 0.00 in / hr 4610 ft 7:36 PM MDT Rapid Fire

Show More Stations Show Fewer Stations

What do you think?

We're not finished. Please let us know what you like, what you don't like, and what you are still missing.